Nevskiy-31 — UCGM — position and weather

sailwx.info

Track history (hours):
 
Tides and Currents Weather Stations Pressure Air Temp Water Temp Dewpoint Dewpoint Depression Visibility Wind Speed Wind Dir Waves Ship Positions

Nevskiy-31

Last reported at 2015-Sep-01 11:31 UTC. Time now 2015-Sep-02 00:20 UTC.
Position N 59°60' E 029°42'.

Length 111 m; draft 2.4 m.

Type: Cargo ship. MMSI: 273440320.

Date/timePositionNaut miles runAvg speedWind from/ knotsBaromVisibWave heightAir tempDewpointWater temp
2015-Sep-01 11:31N 59°60' E 029°42'7 7.2
2015-Sep-01 10:33N 59°57' E 029°54'8 7.5
2015-Sep-01 09:33N 59°54' E 030°08'3 3.3
2015-Sep-01 08:33N 59°52' E 030°13'0 0.0
2015-Sep-01 07:33N 59°52' E 030°13'0 0.0
2015-Sep-01 06:33N 59°52' E 030°13'0 0.0
2015-Sep-01 05:33N 59°52' E 030°13'1 0.5
2015-Sep-01 04:33N 59°52' E 030°12'4 3.8
2015-Sep-01 03:33N 59°54' E 030°06'6 5.6
2015-Sep-01 02:33N 59°56' E 029°56'6 6.2
2015-Sep-01 01:33N 59°59' E 029°44'13 1.1
2015-Aug-31 13:33N 60°00' E 029°19'12 6.0
2015-Aug-31 11:29N 59°59' E 029°44'7 7.2
2015-Aug-31 10:33N 59°56' E 029°56'7 6.6
2015-Aug-31 09:33N 59°57' E 030°09'4 4.5
2015-Aug-31 08:33N 59°57' E 030°18'5 2.6
2015-Aug-31 06:33N 59°54' E 030°26'0 0.0
2015-Aug-31 05:32N 59°54' E 030°26'0 0.0
2015-Aug-31 04:33N 59°54' E 030°26'4 3.7
2015-Aug-31 03:33N 59°57' E 030°22'5 4.8
2015-Aug-31 02:32N 59°58' E 030°13'6 6.1
2015-Aug-31 01:33N 59°56' E 030°02'6 6.1
2015-Aug-31 00:33N 59°57' E 029°50'3 0.2
2015-Aug-30 08:33N 59°59' E 029°45'7 6.6
2015-Aug-30 07:33N 59°56' E 029°57'6 6.3
2015-Aug-30 06:33N 59°57' E 030°09'7 6.5
2015-Aug-30 05:33N 59°57' E 030°22'4 3.7
2015-Aug-30 04:32N 59°54' E 030°26'1 0.1
2015-Aug-29 22:30N 59°55' E 030°25'3 3.6
2015-Aug-29 21:33N 59°57' E 030°20'5 5.3
2015-Aug-29 20:33N 59°57' E 030°10'6 6.3
2015-Aug-29 19:33N 59°56' E 029°57'7 6.7
2015-Aug-29 18:32N 59°59' E 029°45'5 0.1
2015-Aug-28 09:23N 59°60' E 029°36'6 7.6
2015-Aug-28 08:33N 59°58' E 029°48'7 7.3
2015-Aug-28 07:33N 59°56' E 030°02'7 7.1
2015-Aug-28 06:33N 59°57' E 030°15'6 5.5
2015-Aug-28 05:33N 59°55' E 030°25'1 1.0
2015-Aug-28 04:33N 59°54' E 030°26'0 0.0
2015-Aug-28 03:33N 59°54' E 030°26'0 0.4
2015-Aug-28 02:31N 59°54' E 030°26'4 3.7
2015-Aug-28 01:33N 59°57' E 030°22'5 4.7
2015-Aug-28 00:33N 59°58' E 030°12'4 4.4
2015-Aug-27 23:33N 59°56' E 030°04'4 4.2
2015-Aug-27 22:33N 59°56' E 029°56'5 5.0
2015-Aug-27 21:33N 59°58' E 029°47'3 0.2
2015-Aug-27 07:24N 59°60' E 029°41'6 7.2
2015-Aug-27 06:33N 59°57' E 029°52'7 6.9
2015-Aug-27 05:33N 59°57' E 030°06'5 4.5
2015-Aug-27 04:33N 59°57' E 030°15'0 0.0
2015-Aug-27 03:33N 59°57' E 030°15'4 3.7
2015-Aug-27 02:33N 59°57' E 030°22'4 0.9
2015-Aug-26 22:33N 59°54' E 030°26'0 0.0
2015-Aug-26 21:33N 59°54' E 030°26'0 0.0
2015-Aug-26 20:33N 59°54' E 030°26'4 3.7
2015-Aug-26 19:32N 59°57' E 030°23'5 4.6
2015-Aug-26 18:33N 59°58' E 030°14'6 5.6
2015-Aug-26 17:33N 59°56' E 030°04'3 3.2
2015-Aug-26 16:33N 59°56' E 029°57'2 2.3
2015-Aug-26 15:33N 59°57' E 029°53'5 5.2
2015-Aug-26 14:33N 59°59' E 029°44'9 0.5
2015-Aug-25 20:33N 60°00' E 029°26'7 7.4
2015-Aug-25 19:33N 59°60' E 029°41'8 7.6
2015-Aug-25 18:33N 59°56' E 029°55'7 6.9
2015-Aug-25 17:33N 59°57' E 030°08'5 5.3
2015-Aug-25 16:33N 59°57' E 030°19'5 4.4
2015-Aug-25 15:29N 59°54' E 030°26'0 0.0
2015-Aug-25 14:33N 59°54' E 030°26'0 0.0
2015-Aug-25 13:33N 59°54' E 030°26'0 0.1
2015-Aug-25 12:33N 59°54' E 030°26'0 0.0
2015-Aug-25 11:04N 59°54' E 030°26'0 0.0
2015-Aug-25 09:20N 59°54' E 030°26'0 0.2
2015-Aug-25 08:27N 59°54' E 030°26'4 4.1
2015-Aug-25 07:33N 59°57' E 030°23'5 4.6
2015-Aug-25 06:33N 59°58' E 030°14'6 5.9
2015-Aug-25 05:33N 59°56' E 030°03'6 5.8
2015-Aug-25 04:33N 59°57' E 029°51'5 0.3
2015-Aug-24 14:31N 59°59' E 029°43'3 2.7
2015-Aug-24 13:33N 59°58' E 029°48'3 2.7
2015-Aug-24 12:33N 59°57' E 029°53'7 7.5
2015-Aug-24 11:33N 59°54' E 030°07'4 3.5
2015-Aug-24 10:33N 59°52' E 030°13'0 0.5
2015-Aug-24 09:33N 59°52' E 030°13'0 0.0
2015-Aug-24 08:33N 59°52' E 030°13'0 0.0
2015-Aug-24 07:33N 59°52' E 030°13'0 0.0
2015-Aug-24 06:33N 59°52' E 030°13'1 0.7
2015-Aug-24 05:33N 59°52' E 030°12'6 6.5
2015-Aug-24 04:33N 59°55' E 030°01'7 6.9
2015-Aug-24 03:33N 59°58' E 029°48'5 0.3
2015-Aug-23 13:26N 59°60' E 029°40'4 5.0
2015-Aug-23 12:33N 59°58' E 029°48'4 3.9
2015-Aug-23 11:33N 59°56' E 029°55'7 6.8
2015-Aug-23 10:33N 59°57' E 030°09'7 6.7
2015-Aug-23 09:33N 59°57' E 030°22'4 3.8
2015-Aug-23 08:33N 59°54' E 030°26'0 0.0
2015-Aug-23 07:31N 59°54' E 030°26'0 0.0
2015-Aug-23 06:29N 59°54' E 030°26'1 1.5
2015-Aug-23 05:33N 59°55' E 030°24'3 3.1
2015-Aug-23 04:33N 59°57' E 030°20'5 4.7
2015-Aug-23 03:33N 59°57' E 030°10'6 6.1
2015-Aug-23 02:33N 59°55' E 029°59'6 6.3
2015-Aug-23 01:33N 59°58' E 029°47'6 6.0
2015-Aug-23 00:33N 59°60' E 029°36'7 6.8
2015-Aug-22 23:34N 59°60' E 029°22'1 0.1
2015-Aug-22 11:33N 60°00' E 029°20'  
Track history (hours):
 
Tides and Currents Weather Stations Pressure Air Temp Water Temp Dewpoint Dewpoint Depression Visibility Wind Speed Wind Dir Waves Ship Positions

Nevskiy-31

Last reported at 2015-Sep-01 11:31 UTC. Time now 2015-Sep-02 00:20 UTC.
Position N 59°60' E 029°42'.

Length 111 m; draft 2.4 m.

Type: Cargo ship. MMSI: 273440320.

Date/timePositionNaut miles runAvg speedWind from/ knotsBaromVisibWave heightAir tempDewpointWater temp
2015-Sep-01 11:31N 59°60' E 029°42'7 7.2
2015-Sep-01 10:33N 59°57' E 029°54'8 7.5
2015-Sep-01 09:33N 59°54' E 030°08'3 3.3
2015-Sep-01 08:33N 59°52' E 030°13'0 0.0
2015-Sep-01 07:33N 59°52' E 030°13'0 0.0
2015-Sep-01 06:33N 59°52' E 030°13'0 0.0
2015-Sep-01 05:33N 59°52' E 030°13'1 0.5
2015-Sep-01 04:33N 59°52' E 030°12'4 3.8
2015-Sep-01 03:33N 59°54' E 030°06'6 5.6
2015-Sep-01 02:33N 59°56' E 029°56'6 6.2
2015-Sep-01 01:33N 59°59' E 029°44'13 1.1
2015-Aug-31 13:33N 60°00' E 029°19'12 6.0
2015-Aug-31 11:29N 59°59' E 029°44'7 7.2
2015-Aug-31 10:33N 59°56' E 029°56'7 6.6
2015-Aug-31 09:33N 59°57' E 030°09'4 4.5
2015-Aug-31 08:33N 59°57' E 030°18'5 2.6
2015-Aug-31 06:33N 59°54' E 030°26'0 0.0
2015-Aug-31 05:32N 59°54' E 030°26'0 0.0
2015-Aug-31 04:33N 59°54' E 030°26'4 3.7
2015-Aug-31 03:33N 59°57' E 030°22'5 4.8
2015-Aug-31 02:32N 59°58' E 030°13'6 6.1
2015-Aug-31 01:33N 59°56' E 030°02'6 6.1
2015-Aug-31 00:33N 59°57' E 029°50'3 0.2
2015-Aug-30 08:33N 59°59' E 029°45'7 6.6
2015-Aug-30 07:33N 59°56' E 029°57'6 6.3
2015-Aug-30 06:33N 59°57' E 030°09'7 6.5
2015-Aug-30 05:33N 59°57' E 030°22'4 3.7
2015-Aug-30 04:32N 59°54' E 030°26'1 0.1
2015-Aug-29 22:30N 59°55' E 030°25'3 3.6
2015-Aug-29 21:33N 59°57' E 030°20'5 5.3
2015-Aug-29 20:33N 59°57' E 030°10'6 6.3
2015-Aug-29 19:33N 59°56' E 029°57'7 6.7
2015-Aug-29 18:32N 59°59' E 029°45'5 0.1
2015-Aug-28 09:23N 59°60' E 029°36'6 7.6
2015-Aug-28 08:33N 59°58' E 029°48'7 7.3
2015-Aug-28 07:33N 59°56' E 030°02'7 7.1
2015-Aug-28 06:33N 59°57' E 030°15'6 5.5
2015-Aug-28 05:33N 59°55' E 030°25'1 1.0
2015-Aug-28 04:33N 59°54' E 030°26'0 0.0
2015-Aug-28 03:33N 59°54' E 030°26'0 0.4
2015-Aug-28 02:31N 59°54' E 030°26'4 3.7
2015-Aug-28 01:33N 59°57' E 030°22'5 4.7
2015-Aug-28 00:33N 59°58' E 030°12'4 4.4
2015-Aug-27 23:33N 59°56' E 030°04'4 4.2
2015-Aug-27 22:33N 59°56' E 029°56'5 5.0
2015-Aug-27 21:33N 59°58' E 029°47'3 0.2
2015-Aug-27 07:24N 59°60' E 029°41'6 7.2
2015-Aug-27 06:33N 59°57' E 029°52'7 6.9
2015-Aug-27 05:33N 59°57' E 030°06'5 4.5
2015-Aug-27 04:33N 59°57' E 030°15'0 0.0
2015-Aug-27 03:33N 59°57' E 030°15'4 3.7
2015-Aug-27 02:33N 59°57' E 030°22'4 0.9
2015-Aug-26 22:33N 59°54' E 030°26'0 0.0
2015-Aug-26 21:33N 59°54' E 030°26'0 0.0
2015-Aug-26 20:33N 59°54' E 030°26'4 3.7
2015-Aug-26 19:32N 59°57' E 030°23'5 4.6
2015-Aug-26 18:33N 59°58' E 030°14'6 5.6
2015-Aug-26 17:33N 59°56' E 030°04'3 3.2
2015-Aug-26 16:33N 59°56' E 029°57'2 2.3
2015-Aug-26 15:33N 59°57' E 029°53'5 5.2
2015-Aug-26 14:33N 59°59' E 029°44'9 0.5
2015-Aug-25 20:33N 60°00' E 029°26'7 7.4
2015-Aug-25 19:33N 59°60' E 029°41'8 7.6
2015-Aug-25 18:33N 59°56' E 029°55'7 6.9
2015-Aug-25 17:33N 59°57' E 030°08'5 5.3
2015-Aug-25 16:33N 59°57' E 030°19'5 4.4
2015-Aug-25 15:29N 59°54' E 030°26'0 0.0
2015-Aug-25 14:33N 59°54' E 030°26'0 0.0
2015-Aug-25 13:33N 59°54' E 030°26'0 0.1
2015-Aug-25 12:33N 59°54' E 030°26'0 0.0
2015-Aug-25 11:04N 59°54' E 030°26'0 0.0
2015-Aug-25 09:20N 59°54' E 030°26'0 0.2
2015-Aug-25 08:27N 59°54' E 030°26'4 4.1
2015-Aug-25 07:33N 59°57' E 030°23'5 4.6
2015-Aug-25 06:33N 59°58' E 030°14'6 5.9
2015-Aug-25 05:33N 59°56' E 030°03'6 5.8
2015-Aug-25 04:33N 59°57' E 029°51'5 0.3
2015-Aug-24 14:31N 59°59' E 029°43'3 2.7
2015-Aug-24 13:33N 59°58' E 029°48'3 2.7
2015-Aug-24 12:33N 59°57' E 029°53'7 7.5
2015-Aug-24 11:33N 59°54' E 030°07'4 3.5
2015-Aug-24 10:33N 59°52' E 030°13'0 0.5
2015-Aug-24 09:33N 59°52' E 030°13'0 0.0
2015-Aug-24 08:33N 59°52' E 030°13'0 0.0
2015-Aug-24 07:33N 59°52' E 030°13'0 0.0
2015-Aug-24 06:33N 59°52' E 030°13'1 0.7
2015-Aug-24 05:33N 59°52' E 030°12'6 6.5
2015-Aug-24 04:33N 59°55' E 030°01'7 6.9
2015-Aug-24 03:33N 59°58' E 029°48'5 0.3
2015-Aug-23 13:26N 59°60' E 029°40'4 5.0
2015-Aug-23 12:33N 59°58' E 029°48'4 3.9
2015-Aug-23 11:33N 59°56' E 029°55'7 6.8
2015-Aug-23 10:33N 59°57' E 030°09'7 6.7
2015-Aug-23 09:33N 59°57' E 030°22'4 3.8
2015-Aug-23 08:33N 59°54' E 030°26'0 0.0
2015-Aug-23 07:31N 59°54' E 030°26'0 0.0
2015-Aug-23 06:29N 59°54' E 030°26'1 1.5
2015-Aug-23 05:33N 59°55' E 030°24'3 3.1
2015-Aug-23 04:33N 59°57' E 030°20'5 4.7
2015-Aug-23 03:33N 59°57' E 030°10'6 6.1
2015-Aug-23 02:33N 59°55' E 029°59'6 6.3
2015-Aug-23 01:33N 59°58' E 029°47'6 6.0
2015-Aug-23 00:33N 59°60' E 029°36'7 6.8
2015-Aug-22 23:34N 59°60' E 029°22'1 0.1
2015-Aug-22 11:33N 60°00' E 029°20'  

Dump ship's entire track history